Time;durP1;ratioP1;P1;durP2;ratioP2;P2;SDS_P1;SDS_P2;PMS_P1;PMS_P2;Temp;Humidity;BMP_temperature;BMP_pressure;BME280_temperature;BME280_humidity;BME280_pressure;Samples;Min_cycle;Max_cycle;Signal;HPM_P1;HPM_P2
2023/08/20 00:00:17;;;;;;;11.55;9.25;;;21.20;99.90;;;;;;5013998;28;20187;-73
2023/08/20 00:02:45;;;;;;;11.70;9.30;;;21.10;99.90;;;;;;5013096;28;20184;-74
2023/08/20 00:05:11;;;;;;;12.05;10.15;;;21.10;99.90;;;;;;5015212;28;20199;-74
2023/08/20 00:07:37;;;;;;;11.00;9.77;;;21.10;99.90;;;;;;5015113;28;20291;-74
2023/08/20 00:10:04;;;;;;;14.20;9.68;;;21.10;99.90;;;;;;5013782;28;20259;-73
2023/08/20 00:12:30;;;;;;;13.68;10.25;;;21.10;99.90;;;;;;5014605;28;20169;-73
2023/08/20 00:14:58;;;;;;;11.83;9.77;;;21.00;99.90;;;;;;5013864;28;20287;-74
2023/08/20 00:17:26;;;;;;;10.17;9.17;;;20.90;99.90;;;;;;5014919;28;20184;-74
2023/08/20 00:19:53;;;;;;;13.50;10.00;;;20.90;99.90;;;;;;5015086;28;20255;-74
2023/08/20 00:22:21;;;;;;;11.55;10.02;;;20.80;99.90;;;;;;5014570;28;20176;-74
2023/08/20 00:24:47;;;;;;;11.23;9.93;;;20.80;99.90;;;;;;5014749;28;20258;-74
2023/08/20 00:27:13;;;;;;;11.75;9.95;;;20.90;99.90;;;;;;5015146;28;20955;-73
2023/08/20 00:29:38;;;;;;;13.53;10.50;;;20.80;99.90;;;;;;5014675;28;20176;-73
2023/08/20 00:32:04;;;;;;;11.37;9.23;;;20.70;99.90;;;;;;5014610;28;20247;-74
2023/08/20 00:34:29;;;;;;;14.37;11.30;;;20.70;99.90;;;;;;5014231;28;20262;-73
2023/08/20 00:36:55;;;;;;;13.52;10.35;;;20.70;99.90;;;;;;5014292;28;20250;-73
2023/08/20 00:39:21;;;;;;;10.63;9.57;;;20.70;99.90;;;;;;5014532;28;20180;-74
2023/08/20 00:41:46;;;;;;;12.32;10.38;;;20.70;99.90;;;;;;5014223;28;20229;-74
2023/08/20 00:44:12;;;;;;;11.23;10.10;;;20.70;99.90;;;;;;5014100;28;20708;-74
2023/08/20 00:46:38;;;;;;;14.27;10.77;;;20.70;99.90;;;;;;5014361;28;20208;-74
2023/08/20 00:49:04;;;;;;;11.57;10.27;;;20.70;99.90;;;;;;5013197;28;20633;-74
2023/08/20 00:51:33;;;;;;;16.27;10.47;;;20.70;99.90;;;;;;5014216;28;20204;-74
2023/08/20 00:54:00;;;;;;;12.68;10.40;;;20.60;99.90;;;;;;5014216;28;20184;-74
2023/08/20 00:56:26;;;;;;;11.70;10.50;;;20.60;99.90;;;;;;5014103;28;20665;-74
2023/08/20 00:58:54;;;;;;;12.83;11.03;;;20.50;99.90;;;;;;5014068;28;20225;-74
2023/08/20 01:01:21;;;;;;;13.93;11.00;;;20.50;99.90;;;;;;5013857;28;20184;-73
2023/08/20 01:03:47;;;;;;;15.63;11.40;;;20.50;99.90;;;;;;5013719;28;20199;-74
2023/08/20 01:06:27;;;;;;;12.60;11.23;;;20.50;99.90;;;;;;5013548;28;20204;-73
2023/08/20 01:09:05;;;;;;;14.63;11.55;;;20.40;99.90;;;;;;5014008;28;20634;-73
2023/08/20 01:11:37;;;;;;;15.25;11.93;;;20.50;99.90;;;;;;5013735;28;20652;-73
2023/08/20 01:14:13;;;;;;;20.52;11.90;;;20.40;99.90;;;;;;5013089;28;20283;-74
2023/08/20 01:16:39;;;;;;;17.83;12.30;;;20.40;99.90;;;;;;4992872;28;20595;-74
2023/08/20 01:19:06;;;;;;;12.40;11.10;;;20.40;99.90;;;;;;4993221;28;20181;-75
2023/08/20 01:21:39;;;;;;;13.35;12.00;;;20.30;99.90;;;;;;4993150;28;20551;-74
2023/08/20 01:24:30;;;;;;;19.57;12.03;;;20.20;99.90;;;;;;5000156;28;20577;-74
2023/08/20 01:27:42;;;;;;;15.85;12.18;;;20.20;99.90;;;;;;5013357;28;20632;-74
2023/08/20 01:30:09;;;;;;;15.17;11.63;;;20.10;99.90;;;;;;5013661;28;20187;-74
2023/08/20 01:32:36;;;;;;;15.20;11.63;;;20.10;99.90;;;;;;5012987;28;20176;-74
2023/08/20 01:35:03;;;;;;;16.35;12.52;;;20.00;99.90;;;;;;5013038;28;20274;-74
2023/08/20 01:37:28;;;;;;;15.10;12.25;;;20.00;99.90;;;;;;5013221;28;20184;-73
2023/08/20 01:39:54;;;;;;;18.50;12.50;;;20.00;99.90;;;;;;5013023;28;20553;-74
2023/08/20 01:42:20;;;;;;;14.90;11.70;;;20.00;99.90;;;;;;5012759;28;20218;-74
2023/08/20 01:44:45;;;;;;;17.52;12.93;;;20.00;99.90;;;;;;5012688;28;20308;-74
2023/08/20 01:47:11;;;;;;;14.37;12.50;;;20.00;99.90;;;;;;5013071;28;20260;-74
2023/08/20 01:49:36;;;;;;;19.27;12.80;;;19.90;99.90;;;;;;5012996;28;20172;-73
2023/08/20 01:52:02;;;;;;;20.90;14.23;;;19.90;99.90;;;;;;5011646;28;20172;-73
2023/08/20 01:54:29;;;;;;;19.57;14.90;;;19.80;99.90;;;;;;5012722;28;20228;-73
2023/08/20 01:56:54;;;;;;;18.53;13.97;;;19.80;99.90;;;;;;5013095;28;20216;-73
2023/08/20 01:59:21;;;;;;;21.97;15.07;;;19.80;99.90;;;;;;5012988;28;20187;-74
2023/08/20 02:01:47;;;;;;;21.93;15.47;;;19.90;99.90;;;;;;5011740;28;20211;-74
2023/08/20 02:04:13;;;;;;;24.73;15.70;;;19.90;99.90;;;;;;5012670;28;20235;-73
2023/08/20 02:06:38;;;;;;;22.57;14.73;;;19.90;99.90;;;;;;5012534;28;20204;-73
2023/08/20 02:09:04;;;;;;;20.80;15.23;;;19.90;99.90;;;;;;5010855;28;20231;-74
2023/08/20 02:11:32;;;;;;;26.57;15.67;;;19.80;99.90;;;;;;5012490;28;20173;-73
2023/08/20 02:13:58;;;;;;;20.37;16.03;;;19.70;99.90;;;;;;5012240;28;20192;-74
2023/08/20 02:16:24;;;;;;;24.03;16.40;;;19.70;99.90;;;;;;5012696;28;20179;-73
2023/08/20 02:18:49;;;;;;;25.08;17.88;;;19.70;99.90;;;;;;5012185;28;20187;-73
2023/08/20 02:21:15;;;;;;;30.20;19.47;;;19.70;99.90;;;;;;5011176;28;20172;-75
2023/08/20 02:23:40;;;;;;;28.97;19.47;;;19.70;99.90;;;;;;5011952;28;20245;-74
2023/08/20 02:26:06;;;;;;;29.30;19.10;;;19.70;99.90;;;;;;5012656;28;20204;-73
2023/08/20 02:28:31;;;;;;;26.13;18.93;;;19.80;99.90;;;;;;5012316;28;20188;-73
2023/08/20 02:30:59;;;;;;;29.03;19.10;;;19.80;99.90;;;;;;5011332;28;20267;-74
2023/08/20 02:33:25;;;;;;;33.87;19.07;;;19.90;99.90;;;;;;5011903;28;20539;-72
2023/08/20 02:35:51;;;;;;;25.30;18.00;;;19.90;99.90;;;;;;5012630;28;20177;-73
2023/08/20 02:38:16;;;;;;;25.30;17.07;;;19.90;99.90;;;;;;5012618;28;20176;-72
2023/08/20 02:40:42;;;;;;;25.47;19.57;;;19.90;99.90;;;;;;5012068;28;20533;-72
2023/08/20 02:43:08;;;;;;;28.83;19.83;;;19.90;99.90;;;;;;5012324;28;20294;-71
2023/08/20 02:45:38;;;;;;;26.90;19.40;;;19.90;99.90;;;;;;5011827;28;20294;-73
2023/08/20 02:48:04;;;;;;;26.13;18.20;;;20.00;99.90;;;;;;5012405;28;20252;-72
2023/08/20 02:50:30;;;;;;;31.77;19.63;;;20.00;99.90;;;;;;5012297;28;20256;-72
2023/08/20 02:52:56;;;;;;;24.80;17.80;;;20.10;99.90;;;;;;5011813;28;20638;-72
2023/08/20 02:55:22;;;;;;;28.23;18.27;;;20.20;99.90;;;;;;5012039;28;20203;-72
2023/08/20 02:57:47;;;;;;;25.40;17.60;;;20.30;99.90;;;;;;5012179;28;20593;-73
2023/08/20 03:00:13;;;;;;;24.83;15.60;;;20.30;99.90;;;;;;5012509;28;20202;-72
2023/08/20 03:02:41;;;;;;;24.67;16.27;;;20.30;99.90;;;;;;5010442;28;20168;-72
2023/08/20 03:05:08;;;;;;;21.47;15.77;;;20.30;99.90;;;;;;5011920;28;20196;-72
2023/08/20 03:07:34;;;;;;;23.57;17.40;;;20.30;99.90;;;;;;5010743;28;20218;-72
2023/08/20 03:09:59;;;;;;;24.05;16.27;;;20.30;99.90;;;;;;5010826;28;20176;-72
2023/08/20 03:12:25;;;;;;;26.98;18.20;;;20.20;99.90;;;;;;5011851;28;20579;-72
2023/08/20 03:14:50;;;;;;;24.10;16.27;;;20.20;99.90;;;;;;5011701;28;20667;-72
2023/08/20 03:17:16;;;;;;;26.50;16.57;;;20.10;99.90;;;;;;5012104;28;20176;-73
2023/08/20 03:19:57;;;;;;;25.60;17.97;;;20.10;99.90;;;;;;5011648;28;20176;-73
2023/08/20 03:22:23;;;;;;;24.30;17.87;;;20.00;99.90;;;;;;5011814;28;20234;-72
2023/08/20 03:24:49;;;;;;;26.67;17.40;;;20.00;99.90;;;;;;5011602;28;20662;-72
2023/08/20 03:27:18;;;;;;;22.93;17.10;;;20.00;99.90;;;;;;5011827;28;20283;-72
2023/08/20 03:29:44;;;;;;;25.40;17.57;;;19.90;99.90;;;;;;5011569;28;20656;-74
2023/08/20 03:32:10;;;;;;;24.87;16.83;;;19.90;99.90;;;;;;5011664;28;20222;-72
2023/08/20 03:34:36;;;;;;;21.53;15.67;;;19.90;99.90;;;;;;5011532;28;20642;-73
2023/08/20 03:37:02;;;;;;;21.30;16.00;;;19.90;99.90;;;;;;5011799;28;20181;-74
2023/08/20 03:39:28;;;;;;;25.57;16.83;;;19.90;99.90;;;;;;5011867;28;20211;-74
2023/08/20 03:41:53;;;;;;;25.40;16.97;;;19.80;99.90;;;;;;5011185;28;20586;-74
2023/08/20 03:44:19;;;;;;;22.07;16.03;;;19.80;99.90;;;;;;5011624;28;20710;-74
2023/08/20 03:46:45;;;;;;;20.17;14.87;;;19.80;99.90;;;;;;5011386;28;20211;-74
2023/08/20 03:49:10;;;;;;;20.53;14.90;;;19.80;99.90;;;;;;5011446;28;20178;-74
2023/08/20 03:51:36;;;;;;;22.80;14.23;;;19.80;99.90;;;;;;5010996;28;20176;-74
2023/08/20 03:54:02;;;;;;;23.90;14.90;;;19.80;99.90;;;;;;5011572;28;20621;-74
2023/08/20 03:56:28;;;;;;;22.47;15.40;;;19.80;99.90;;;;;;5011795;28;20179;-74
2023/08/20 03:58:55;;;;;;;21.13;15.67;;;19.80;99.90;;;;;;5011392;28;20641;-74
2023/08/20 04:01:21;;;;;;;19.60;13.63;;;19.70;99.90;;;;;;5011241;28;20606;-74
2023/08/20 04:03:48;;;;;;;22.27;14.23;;;19.80;99.90;;;;;;5010078;28;20227;-76
2023/08/20 04:06:14;;;;;;;20.47;14.73;;;19.70;99.90;;;;;;5011482;28;20306;-74
2023/08/20 04:08:40;;;;;;;23.47;14.40;;;19.80;99.90;;;;;;5011400;28;20210;-74
2023/08/20 04:11:06;;;;;;;19.30;14.00;;;19.70;99.90;;;;;;5011617;28;20533;-74
2023/08/20 04:13:32;;;;;;;22.40;14.10;;;19.60;99.90;;;;;;5011353;28;20188;-74
2023/08/20 04:15:58;;;;;;;18.53;13.80;;;19.70;99.90;;;;;;5011449;28;20176;-74
2023/08/20 04:18:24;;;;;;;21.10;15.33;;;19.70;99.90;;;;;;5011522;28;20516;-73
2023/08/20 04:20:53;;;;;;;19.33;14.53;;;19.70;99.90;;;;;;5009720;28;20184;-72
2023/08/20 04:23:19;;;;;;;19.83;13.63;;;19.70;99.90;;;;;;5011141;28;20234;-72
2023/08/20 04:25:45;;;;;;;18.53;13.70;;;19.70;99.90;;;;;;5011261;28;20571;-73
2023/08/20 04:28:12;;;;;;;24.43;14.73;;;19.70;99.90;;;;;;5011468;28;20551;-72
2023/08/20 04:30:38;;;;;;;22.90;14.73;;;19.70;99.90;;;;;;5010784;28;20172;-72
2023/08/20 04:33:04;;;;;;;22.20;13.00;;;19.70;99.90;;;;;;5012388;28;20299;-74
2023/08/20 04:35:30;;;;;;;19.83;14.10;;;19.60;99.90;;;;;;5014929;28;20188;-72
2023/08/20 04:37:56;;;;;;;20.47;13.97;;;19.50;99.90;;;;;;5014756;28;20231;-73
2023/08/20 04:40:22;;;;;;;21.93;13.93;;;19.50;99.90;;;;;;5014634;28;20168;-72
2023/08/20 04:42:49;;;;;;;21.73;14.13;;;19.50;99.90;;;;;;5014277;28;20169;-72
2023/08/20 04:45:17;;;;;;;20.93;14.87;;;19.60;99.90;;;;;;5015163;28;20242;-74
2023/08/20 04:47:43;;;;;;;16.97;13.37;;;19.50;99.90;;;;;;5014466;28;20203;-73
2023/08/20 04:50:09;;;;;;;20.97;14.20;;;19.60;99.90;;;;;;5014527;28;20184;-73
2023/08/20 04:52:34;;;;;;;21.30;15.20;;;19.60;99.90;;;;;;5013690;28;20230;-73
2023/08/20 04:55:04;;;;;;;18.97;13.67;;;19.70;99.90;;;;;;5014325;28;20539;-74
2023/08/20 04:57:29;;;;;;;18.63;14.07;;;19.70;99.90;;;;;;5014675;28;20176;-74
2023/08/20 04:59:55;;;;;;;18.67;12.50;;;19.80;99.90;;;;;;5014249;28;20176;-74
2023/08/20 05:02:21;;;;;;;18.20;13.50;;;19.90;99.90;;;;;;5014086;28;20665;-73
2023/08/20 05:04:46;;;;;;;19.27;13.20;;;19.90;99.90;;;;;;5014111;28;20192;-73
2023/08/20 05:07:12;;;;;;;24.47;14.27;;;20.00;99.90;;;;;;5014315;28;20204;-73
2023/08/20 05:09:37;;;;;;;18.13;12.70;;;20.10;99.90;;;;;;5014044;28;20645;-73
2023/08/20 05:12:03;;;;;;;19.73;13.60;;;20.20;99.90;;;;;;5013257;28;20263;-74
2023/08/20 05:14:30;;;;;;;20.70;13.10;;;20.20;99.90;;;;;;5013749;28;20196;-74
2023/08/20 05:16:56;;;;;;;20.90;13.83;;;20.30;99.90;;;;;;5013857;28;20630;-73
2023/08/20 05:19:22;;;;;;;18.73;13.90;;;20.30;99.90;;;;;;5013606;28;20191;-73
2023/08/20 05:21:47;;;;;;;14.77;12.27;;;20.30;99.90;;;;;;5013204;28;20195;-73
2023/08/20 05:24:13;;;;;;;15.85;12.50;;;20.30;99.90;;;;;;5013498;28;20196;-74
2023/08/20 05:26:39;;;;;;;16.17;12.30;;;20.40;99.90;;;;;;5013533;28;20200;-73
2023/08/20 05:29:04;;;;;;;17.73;12.27;;;20.40;99.90;;;;;;5012927;28;20246;-73
2023/08/20 05:31:30;;;;;;;21.10;12.95;;;20.50;99.90;;;;;;5013374;28;20218;-74
2023/08/20 05:33:55;;;;;;;20.13;12.27;;;20.50;99.90;;;;;;5013301;28;20685;-73
2023/08/20 05:36:21;;;;;;;15.32;12.30;;;20.60;99.90;;;;;;5012363;28;20176;-73
2023/08/20 05:38:47;;;;;;;16.37;12.77;;;20.60;99.90;;;;;;5013040;28;20235;-73
2023/08/20 05:41:12;;;;;;;19.40;12.18;;;20.60;99.90;;;;;;5013338;28;20247;-73
2023/08/20 05:43:38;;;;;;;16.13;12.27;;;20.50;99.90;;;;;;5012467;28;20227;-74
2023/08/20 05:46:03;;;;;;;18.97;13.10;;;20.60;99.90;;;;;;5012791;28;20230;-72
2023/08/20 05:48:29;;;;;;;19.67;12.68;;;20.50;99.90;;;;;;5012980;28;20213;-73
2023/08/20 05:50:55;;;;;;;16.73;12.75;;;20.50;99.90;;;;;;5012778;28;20176;-73
2023/08/20 05:53:22;;;;;;;14.70;12.70;;;20.60;99.90;;;;;;5012930;28;20258;-73
2023/08/20 05:55:48;;;;;;;18.43;13.17;;;20.70;99.90;;;;;;5012823;28;20176;-73
2023/08/20 05:58:14;;;;;;;18.05;11.88;;;20.80;99.90;;;;;;5013205;28;20191;-73
2023/08/20 06:00:39;;;;;;;17.25;11.45;;;20.90;99.90;;;;;;5012399;28;20184;-73
2023/08/20 06:03:07;;;;;;;19.10;12.80;;;21.00;99.90;;;;;;5012573;28;20222;-74
2023/08/20 06:05:33;;;;;;;15.43;11.68;;;21.10;99.90;;;;;;5012623;28;20540;-74
2023/08/20 06:07:58;;;;;;;16.83;12.52;;;21.20;99.90;;;;;;5012634;28;20234;-74
2023/08/20 06:10:24;;;;;;;15.57;11.70;;;21.40;99.90;;;;;;5012555;28;20180;-74
2023/08/20 06:12:53;;;;;;;18.92;12.50;;;21.60;99.90;;;;;;5012097;28;20247;-74
2023/08/20 06:15:18;;;;;;;12.75;10.98;;;21.60;99.90;;;;;;5012587;28;20291;-73
2023/08/20 06:17:44;;;;;;;18.58;12.05;;;21.80;99.90;;;;;;5012446;28;20259;-73
2023/08/20 06:20:11;;;;;;;15.23;10.77;;;22.00;99.90;;;;;;5012399;28;20187;-73
2023/08/20 06:22:40;;;;;;;11.73;9.15;;;22.40;99.90;;;;;;5012142;28;20172;-74
2023/08/20 06:25:06;;;;;;;15.63;10.52;;;22.90;99.90;;;;;;5010995;28;20204;-74
2023/08/20 06:27:32;;;;;;;12.88;10.43;;;23.40;99.90;;;;;;5011243;28;20207;-74
2023/08/20 06:29:57;;;;;;;13.63;11.45;;;23.80;99.90;;;;;;5010732;28;20181;-73
2023/08/20 06:32:24;;;;;;;13.48;10.02;;;24.20;99.90;;;;;;5012111;28;20263;-75
2023/08/20 06:34:49;;;;;;;14.80;9.70;;;24.50;99.90;;;;;;5012028;28;20199;-73
2023/08/20 06:37:15;;;;;;;14.38;9.77;;;24.60;99.90;;;;;;5009985;28;20179;-73
2023/08/20 06:39:41;;;;;;;9.63;8.63;;;24.90;99.90;;;;;;5011391;28;20192;-74
2023/08/20 06:42:06;;;;;;;12.48;9.80;;;25.10;99.90;;;;;;5011768;28;20541;-74
2023/08/20 06:44:32;;;;;;;12.75;9.18;;;25.10;99.90;;;;;;5011525;28;20320;-74
2023/08/20 06:46:57;;;;;;;10.35;8.85;;;25.00;99.90;;;;;;5010405;28;20299;-74
2023/08/20 06:49:23;;;;;;;11.70;9.38;;;25.00;99.90;;;;;;5011321;28;20214;-74
2023/08/20 06:51:49;;;;;;;13.55;9.52;;;25.20;99.90;;;;;;5011286;28;20176;-73
2023/08/20 06:54:15;;;;;;;12.20;9.05;;;25.40;99.90;;;;;;5011823;28;20646;-74
2023/08/20 06:56:41;;;;;;;13.77;10.13;;;25.50;99.90;;;;;;5011692;28;20168;-74
2023/08/20 06:59:07;;;;;;;12.20;8.93;;;25.60;99.90;;;;;;5011077;28;20590;-74
2023/08/20 07:01:32;;;;;;;13.05;9.10;;;25.70;99.90;;;;;;5011107;28;20180;-74
2023/08/20 07:03:58;;;;;;;11.75;9.38;;;26.00;99.90;;;;;;5011698;28;20257;-75
2023/08/20 07:06:23;;;;;;;11.93;9.70;;;26.30;99.90;;;;;;5011498;28;20251;-73
2023/08/20 07:08:50;;;;;;;12.80;9.63;;;26.30;99.90;;;;;;5011473;28;20602;-74
2023/08/20 07:11:15;;;;;;;13.10;10.45;;;26.30;99.90;;;;;;5011401;28;20178;-74
2023/08/20 07:13:41;;;;;;;12.95;9.68;;;26.30;99.90;;;;;;5011399;28;20591;-74
2023/08/20 07:16:07;;;;;;;15.35;10.45;;;26.30;99.90;;;;;;5011673;28;20188;-74
2023/08/20 07:18:32;;;;;;;14.60;10.82;;;26.40;99.90;;;;;;5011157;28;20752;-74
2023/08/20 07:20:58;;;;;;;13.43;10.63;;;26.30;99.90;;;;;;5011320;28;20265;-74
2023/08/20 07:23:23;;;;;;;13.20;10.85;;;26.20;99.90;;;;;;5009896;28;20544;-73
2023/08/20 07:25:52;;;;;;;13.35;10.85;;;26.20;99.90;;;;;;5010342;28;20196;-73
2023/08/20 07:28:56;;;;;;;13.93;10.40;;;26.30;99.90;;;;;;5010162;28;20230;-74
2023/08/20 07:31:06;;;;;;;15.57;12.02;;;26.70;99.90;;;;;;5004916;28;20207;-73
2023/08/20 07:33:32;;;;;;;13.48;11.07;;;27.10;99.90;;;;;;5009207;28;20246;-73
2023/08/20 07:35:57;;;;;;;14.68;11.63;;;27.50;99.90;;;;;;5011140;28;20180;-75
2023/08/20 07:38:23;;;;;;;14.68;12.48;;;27.90;99.90;;;;;;5011245;28;20172;-74
2023/08/20 07:40:48;;;;;;;13.48;10.57;;;28.30;99.90;;;;;;5010977;28;20263;-74
2023/08/20 07:43:14;;;;;;;14.45;9.75;;;28.70;99.90;;;;;;5010702;28;20239;-74
2023/08/20 07:45:40;;;;;;;14.70;11.27;;;29.10;99.90;;;;;;5010930;28;20184;-74
2023/08/20 07:48:05;;;;;;;17.55;12.52;;;29.80;99.90;;;;;;5011021;28;20200;-74
2023/08/20 07:50:31;;;;;;;16.33;14.02;;;30.30;99.90;;;;;;5010912;28;20587;-73
2023/08/20 07:52:57;;;;;;;16.02;13.38;;;30.50;99.90;;;;;;5010614;28;20383;-74
2023/08/20 07:55:22;;;;;;;18.17;13.60;;;30.70;99.90;;;;;;5011012;28;20223;-74
2023/08/20 07:57:49;;;;;;;16.25;12.38;;;30.80;99.90;;;;;;5010920;28;20545;-74
2023/08/20 08:00:15;;;;;;;15.27;11.63;;;31.00;99.90;;;;;;5010896;28;20191;-74
2023/08/20 08:02:41;;;;;;;16.58;12.50;;;31.30;99.90;;;;;;5009798;28;20169;-73
2023/08/20 08:05:07;;;;;;;13.02;10.60;;;31.40;99.90;;;;;;5009436;28;20571;-74
2023/08/20 08:07:32;;;;;;;13.45;10.52;;;31.60;99.90;;;;;;5011737;28;20200;-74
2023/08/20 08:09:58;;;;;;;14.77;11.13;;;31.80;99.90;;;;;;5014556;28;20168;-74
2023/08/20 08:12:23;;;;;;;15.68;11.52;;;32.30;99.90;;;;;;5012886;28;21086;-74
2023/08/20 08:14:49;;;;;;;13.20;10.88;;;32.60;99.90;;;;;;5014194;28;20196;-74
2023/08/20 08:17:15;;;;;;;15.15;11.32;;;32.90;99.90;;;;;;5014885;28;20176;-75
2023/08/20 08:19:40;;;;;;;14.68;11.10;;;32.90;99.90;;;;;;5014522;28;20203;-75
2023/08/20 08:22:06;;;;;;;14.13;11.52;;;33.00;99.90;;;;;;5012925;28;20180;-75
2023/08/20 08:24:31;;;;;;;15.02;11.32;;;33.20;99.90;;;;;;5014575;28;20282;-74
2023/08/20 08:26:57;;;;;;;17.42;11.50;;;33.60;99.90;;;;;;5014004;28;20215;-74
2023/08/20 08:29:23;;;;;;;16.73;12.07;;;33.90;99.90;;;;;;5014545;28;20519;-75
2023/08/20 08:31:48;;;;;;;17.33;11.02;;;33.90;99.90;;;;;;5014061;28;20165;-75
2023/08/20 08:34:14;;;;;;;15.57;10.30;;;33.80;99.90;;;;;;5014274;28;20296;-74
2023/08/20 08:36:40;;;;;;;13.55;11.02;;;34.10;99.90;;;;;;5014274;28;20529;-74
2023/08/20 08:39:07;;;;;;;15.52;9.85;;;34.30;99.90;;;;;;5014154;28;20231;-74
2023/08/20 08:41:35;;;;;;;11.80;9.77;;;34.20;99.90;;;;;;5014069;28;20255;-74
2023/08/20 08:44:01;;;;;;;13.23;9.82;;;34.20;99.90;;;;;;5013998;28;20234;-74
2023/08/20 08:46:27;;;;;;;11.88;9.23;;;34.50;99.90;;;;;;5012413;28;20200;-74
2023/08/20 08:48:53;;;;;;;11.63;8.48;;;34.70;99.90;;;;;;5014058;28;20547;-74
2023/08/20 08:51:18;;;;;;;11.35;8.65;;;35.00;99.90;;;;;;5013996;28;20234;-74
2023/08/20 08:53:46;;;;;;;10.25;7.88;;;35.40;99.90;;;;;;5013735;28;20196;-74
2023/08/20 08:56:11;;;;;;;11.20;8.13;;;35.90;99.90;;;;;;5013810;28;20184;-74
2023/08/20 08:58:37;;;;;;;12.93;8.70;;;36.30;99.90;;;;;;5013923;28;20656;-74
2023/08/20 09:01:03;;;;;;;9.73;8.45;;;36.50;99.90;;;;;;5013737;28;20293;-74
2023/08/20 09:03:28;;;;;;;14.75;10.55;;;36.50;99.90;;;;;;5013566;28;20587;-74
2023/08/20 09:06:03;;;;;;;17.00;9.20;;;36.20;99.90;;;;;;5013333;28;20291;-74
2023/08/20 09:08:32;;;;;;;11.85;8.32;;;36.30;99.90;;;;;;5013460;28;20660;-74
2023/08/20 09:11:00;;;;;;;10.00;7.13;;;36.30;99.90;;;;;;5013306;28;20203;-75
2023/08/20 09:13:39;;;;;;;8.82;6.95;;;35.90;99.90;;;;;;5013664;28;20176;-74
2023/08/20 09:16:09;;;;;;;9.13;6.30;;;35.60;99.90;;;;;;5013936;28;20249;-73
2023/08/20 09:18:40;;;;;;;8.77;6.55;;;35.20;99.90;;;;;;5013487;28;20184;-73
2023/08/20 09:21:09;;;;;;;9.07;7.13;;;34.70;99.90;;;;;;5013459;28;20172;-74
2023/08/20 09:23:35;;;;;;;9.02;7.60;;;34.30;99.90;;;;;;5012882;28;20213;-74
2023/08/20 09:26:02;;;;;;;10.23;7.68;;;34.20;99.90;;;;;;5013205;28;20207;-74
2023/08/20 09:28:28;;;;;;;8.02;6.90;;;34.10;99.90;;;;;;5013438;28;20168;-75
2023/08/20 09:30:58;;;;;;;8.27;6.57;;;34.20;99.90;;;;;;5012765;28;20177;-74
2023/08/20 09:33:24;;;;;;;11.57;6.88;;;34.60;99.90;;;;;;5013084;28;20575;-74
2023/08/20 09:35:51;;;;;;;6.40;5.80;;;34.60;99.90;;;;;;5013164;28;20165;-74
2023/08/20 09:38:21;;;;;;;8.30;7.00;;;34.50;99.90;;;;;;5012967;28;20165;-74
2023/08/20 09:40:56;;;;;;;8.02;6.30;;;34.10;99.90;;;;;;5013086;28;20700;-74
2023/08/20 09:43:27;;;;;;;8.23;5.75;;;33.00;99.90;;;;;;5012706;28;20218;-74
2023/08/20 09:45:55;;;;;;;8.52;6.03;;;32.30;99.90;;;;;;5013021;28;20187;-74
2023/08/20 09:48:23;;;;;;;9.88;7.80;;;31.70;99.90;;;;;;5013235;28;20174;-74
2023/08/20 09:50:54;;;;;;;10.57;8.57;;;31.40;99.90;;;;;;5012846;28;20172;-74
2023/08/20 09:53:28;;;;;;;28.60;26.83;;;31.10;99.90;;;;;;5012755;28;20653;-74
2023/08/20 09:55:59;;;;;;;8.35;7.40;;;31.10;99.90;;;;;;5011683;28;20295;-74
2023/08/20 09:58:26;;;;;;;8.88;8.18;;;31.30;99.90;;;;;;5011474;28;20187;-74
2023/08/20 10:00:52;;;;;;;9.98;6.38;;;31.70;99.90;;;;;;5012665;28;20161;-75
2023/08/20 10:03:21;;;;;;;7.18;5.38;;;32.30;99.90;;;;;;5012431;28;20539;-74
2023/08/20 10:05:49;;;;;;;9.40;7.00;;;32.50;99.90;;;;;;5012655;28;20536;-75
2023/08/20 10:08:15;;;;;;;7.60;6.80;;;32.60;99.90;;;;;;5012689;28;20164;-74
2023/08/20 10:10:41;;;;;;;6.80;6.03;;;32.40;99.90;;;;;;5012563;28;20529;-74
2023/08/20 10:13:07;;;;;;;6.55;5.93;;;32.30;99.90;;;;;;5012344;28;20173;-75
2023/08/20 10:15:36;;;;;;;7.50;5.90;;;32.30;99.90;;;;;;5012451;28;20215;-74
2023/08/20 10:18:02;;;;;;;6.95;6.10;;;32.50;99.90;;;;;;5012441;28;20641;-74
2023/08/20 10:20:30;;;;;;;6.82;6.18;;;32.40;99.90;;;;;;5012063;28;20255;-74
2023/08/20 10:23:00;;;;;;;8.00;6.65;;;32.10;99.90;;;;;;5011707;28;20172;-75
2023/08/20 10:25:26;;;;;;;7.97;6.25;;;32.20;99.90;;;;;;5012273;28;20696;-74
2023/08/20 10:27:53;;;;;;;7.35;6.35;;;32.30;99.90;;;;;;5012202;28;20214;-74
2023/08/20 10:30:28;;;;;;;8.45;6.38;;;32.40;99.90;;;;;;5011773;28;20658;-74
2023/08/20 10:33:03;;;;;;;9.02;6.28;;;32.70;99.90;;;;;;5009738;28;20191;-75
2023/08/20 10:35:47;;;;;;;8.23;7.43;;;33.00;99.90;;;;;;5012079;28;20195;-73
2023/08/20 10:38:16;;;;;;;9.60;6.72;;;33.10;99.90;;;;;;5010673;28;20180;-74
2023/08/20 10:40:58;;;;;;;7.43;5.90;;;33.00;99.90;;;;;;5011670;28;20164;-74
2023/08/20 10:43:35;;;;;;;9.85;6.07;;;33.20;99.90;;;;;;5011360;28;20176;-74
2023/08/20 10:46:07;;;;;;;8.13;6.53;;;33.30;99.90;;;;;;5012374;28;20579;-75
2023/08/20 10:48:34;;;;;;;7.25;6.60;;;33.20;99.90;;;;;;4992354;28;20260;-75
2023/08/20 10:51:10;;;;;;;9.15;6.88;;;33.00;99.90;;;;;;4992108;28;20196;-74
2023/08/20 10:53:36;;;;;;;7.60;5.93;;;32.90;99.90;;;;;;5007466;28;20227;-74
2023/08/20 10:56:15;;;;;;;6.85;5.88;;;32.10;99.90;;;;;;5011692;28;20212;-74
2023/08/20 10:58:43;;;;;;;9.07;8.18;;;31.30;99.90;;;;;;5011907;28;20183;-75
2023/08/20 11:01:19;;;;;;;9.55;8.70;;;30.80;99.90;;;;;;5011403;28;20809;-75
2023/08/20 11:03:46;;;;;;;7.18;6.32;;;30.80;99.90;;;;;;5011179;28;20199;-75
2023/08/20 11:06:12;;;;;;;11.13;10.18;;;30.90;99.90;;;;;;5007955;28;20208;-75
2023/08/20 11:08:39;;;;;;;6.95;6.25;;;30.80;99.90;;;;;;5011496;28;20176;-75
2023/08/20 11:11:06;;;;;;;8.02;6.45;;;30.90;99.90;;;;;;5011410;28;20168;-75
2023/08/20 11:13:33;;;;;;;9.48;8.77;;;31.50;99.90;;;;;;5011346;28;20196;-75
2023/08/20 11:15:59;;;;;;;6.15;5.55;;;32.30;99.90;;;;;;5011277;28;20267;-74
2023/08/20 11:18:25;;;;;;;8.15;5.63;;;32.80;99.90;;;;;;5011390;28;20184;-75
2023/08/20 11:20:51;;;;;;;6.38;5.72;;;33.20;99.90;;;;;;5011601;28;20230;-75
2023/08/20 11:23:17;;;;;;;7.82;5.47;;;33.50;99.90;;;;;;5011221;28;20176;-75
2023/08/20 11:25:43;;;;;;;7.63;5.78;;;33.60;99.90;;;;;;5011512;28;20242;-75
2023/08/20 11:28:09;;;;;;;6.70;5.80;;;33.50;99.90;;;;;;5011206;28;20514;-75
2023/08/20 11:30:35;;;;;;;6.53;5.88;;;33.20;99.90;;;;;;5011549;28;20246;-74
2023/08/20 11:33:01;;;;;;;8.98;5.20;;;32.80;99.90;;;;;;5011181;28;20172;-74
2023/08/20 11:35:27;;;;;;;7.03;5.95;;;32.80;99.90;;;;;;5011283;28;20219;-75
2023/08/20 11:37:53;;;;;;;7.45;5.60;;;32.80;99.90;;;;;;5010319;28;20223;-74
2023/08/20 11:40:22;;;;;;;6.85;5.05;;;32.80;99.90;;;;;;5011080;28;20180;-75
2023/08/20 11:42:49;;;;;;;6.93;5.43;;;32.90;99.90;;;;;;5012238;28;20700;-75
2023/08/20 11:45:15;;;;;;;6.68;5.60;;;32.80;99.90;;;;;;5015206;28;20250;-75
2023/08/20 11:47:42;;;;;;;7.10;6.10;;;32.80;99.90;;;;;;5015549;28;20234;-75
2023/08/20 11:50:08;;;;;;;6.78;6.10;;;33.00;99.90;;;;;;5015648;28;20168;-75
2023/08/20 11:52:35;;;;;;;6.18;5.53;;;33.30;99.90;;;;;;5015202;28;20164;-75
2023/08/20 11:55:01;;;;;;;5.25;4.75;;;33.50;99.90;;;;;;5015203;28;20196;-75
2023/08/20 11:57:29;;;;;;;11.27;5.38;;;33.50;99.90;;;;;;5014890;28;20187;-75
2023/08/20 11:59:56;;;;;;;4.72;4.32;;;33.00;99.90;;;;;;5015272;28;20196;-75
2023/08/20 12:02:27;;;;;;;5.50;5.10;;;32.50;99.90;;;;;;5014918;28;20171;-75
2023/08/20 12:04:59;;;;;;;5.68;5.07;;;32.10;99.90;;;;;;5014744;28;20197;-76
2023/08/20 12:07:26;;;;;;;9.00;8.40;;;31.90;99.90;;;;;;5014521;28;20200;-75
2023/08/20 12:09:55;;;;;;;5.68;4.97;;;31.80;99.90;;;;;;5014739;28;20283;-76
2023/08/20 12:12:21;;;;;;;9.63;8.93;;;31.70;99.90;;;;;;5014377;28;20176;-75
2023/08/20 12:14:47;;;;;;;12.10;11.05;;;31.60;99.90;;;;;;5013535;28;20192;-75
2023/08/20 12:17:18;;;;;;;8.50;7.78;;;31.50;99.90;;;;;;5014660;28;20255;-75
2023/08/20 12:19:46;;;;;;;8.27;7.47;;;31.30;99.90;;;;;;5014682;28;20172;-75
2023/08/20 12:22:12;;;;;;;5.97;5.40;;;31.30;99.90;;;;;;5014324;28;20183;-75
2023/08/20 12:24:38;;;;;;;9.98;9.30;;;31.60;99.90;;;;;;5014534;28;20569;-75
2023/08/20 12:27:04;;;;;;;21.08;19.88;;;31.60;99.90;;;;;;5014538;28;20207;-75
2023/08/20 12:29:30;;;;;;;11.68;9.60;;;31.40;99.90;;;;;;5014286;28;20176;-75
2023/08/20 12:31:55;;;;;;;6.95;6.25;;;31.10;99.90;;;;;;5014131;28;20514;-75